sensor_id;sensor_type;location;lat;lon;timestamp;P1;P2;P0
23240;PMS7003;11789;53.482;9.862;2022-09-28T00:00:10;7.75;7.75;6.00
23240;PMS7003;11789;53.482;9.862;2022-09-28T00:02:36;10.25;9.00;7.00
23240;PMS7003;11789;53.482;9.862;2022-09-28T00:05:01;8.00;8.00;7.00
23240;PMS7003;11789;53.482;9.862;2022-09-28T00:07:27;10.75;10.00;7.75
23240;PMS7003;11789;53.482;9.862;2022-09-28T00:09:53;6.75;6.75;4.00
23240;PMS7003;11789;53.482;9.862;2022-09-28T00:12:19;16.00;14.25;8.00
23240;PMS7003;11789;53.482;9.862;2022-09-28T00:14:45;9.50;9.50;6.75
23240;PMS7003;11789;53.482;9.862;2022-09-28T00:17:11;12.50;9.75;7.75
23240;PMS7003;11789;53.482;9.862;2022-09-28T00:19:37;9.00;9.00;6.50
23240;PMS7003;11789;53.482;9.862;2022-09-28T00:22:06;8.50;8.50;7.00
23240;PMS7003;11789;53.482;9.862;2022-09-28T00:24:32;8.50;8.25;6.00
23240;PMS7003;11789;53.482;9.862;2022-09-28T00:26:57;8.75;8.75;6.50
23240;PMS7003;11789;53.482;9.862;2022-09-28T00:29:33;9.50;7.75;5.75
23240;PMS7003;11789;53.482;9.862;2022-09-28T00:32:01;14.25;11.50;8.25
23240;PMS7003;11789;53.482;9.862;2022-09-28T00:34:32;9.25;9.25;6.00
23240;PMS7003;11789;53.482;9.862;2022-09-28T00:37:01;11.00;10.25;8.00
23240;PMS7003;11789;53.482;9.862;2022-09-28T00:39:27;14.25;13.00;8.00
23240;PMS7003;11789;53.482;9.862;2022-09-28T00:41:55;13.00;10.25;7.00
23240;PMS7003;11789;53.482;9.862;2022-09-28T00:47:06;18.25;13.25;9.25
23240;PMS7003;11789;53.482;9.862;2022-09-28T00:49:39;19.75;15.25;8.00
23240;PMS7003;11789;53.482;9.862;2022-09-28T00:52:14;23.75;21.00;12.25
23240;PMS7003;11789;53.482;9.862;2022-09-28T00:54:45;73.33;53.00;28.00
23240;PMS7003;11789;53.482;9.862;2022-09-28T00:57:13;78.00;59.33;30.67
23240;PMS7003;11789;53.482;9.862;2022-09-28T00:59:40;60.75;45.00;24.00
23240;PMS7003;11789;53.482;9.862;2022-09-28T01:02:06;87.00;63.33;31.00
23240;PMS7003;11789;53.482;9.862;2022-09-28T01:04:37;58.75;43.00;21.75
23240;PMS7003;11789;53.482;9.862;2022-09-28T01:07:02;45.25;35.00;19.00
23240;PMS7003;11789;53.482;9.862;2022-09-28T01:09:28;31.75;28.50;13.00
23240;PMS7003;11789;53.482;9.862;2022-09-28T01:11:54;38.75;29.75;16.00
23240;PMS7003;11789;53.482;9.862;2022-09-28T01:14:20;55.25;40.25;20.50
23240;PMS7003;11789;53.482;9.862;2022-09-28T01:28:15;22.00;22.00;16.25
23240;PMS7003;11789;53.482;9.862;2022-09-28T01:30:54;32.25;30.25;18.00
23240;PMS7003;11789;53.482;9.862;2022-09-28T01:33:36;43.00;38.50;25.00
23240;PMS7003;11789;53.482;9.862;2022-09-28T01:36:08;31.75;25.75;15.50
23240;PMS7003;11789;53.482;9.862;2022-09-28T01:38:40;22.50;21.75;15.00
23240;PMS7003;11789;53.482;9.862;2022-09-28T01:41:12;16.00;15.50;10.25
23240;PMS7003;11789;53.482;9.862;2022-09-28T01:43:41;20.50;20.00;13.00
23240;PMS7003;11789;53.482;9.862;2022-09-28T01:46:13;21.00;17.50;12.75
23240;PMS7003;11789;53.482;9.862;2022-09-28T01:48:45;14.25;14.25;9.75
23240;PMS7003;11789;53.482;9.862;2022-09-28T01:51:31;13.75;13.75;8.50
23240;PMS7003;11789;53.482;9.862;2022-09-28T01:54:00;14.00;12.75;8.25
23240;PMS7003;11789;53.482;9.862;2022-09-28T01:56:38;12.25;11.75;8.25
23240;PMS7003;11789;53.482;9.862;2022-09-28T01:59:17;12.00;12.00;8.00
23240;PMS7003;11789;53.482;9.862;2022-09-28T02:01:48;18.50;13.25;8.00
23240;PMS7003;11789;53.482;9.862;2022-09-28T02:04:19;13.50;11.75;7.00
23240;PMS7003;11789;53.482;9.862;2022-09-28T02:06:53;15.50;12.00;8.00
23240;PMS7003;11789;53.482;9.862;2022-09-28T02:09:27;14.25;12.75;8.75
23240;PMS7003;11789;53.482;9.862;2022-09-28T02:12:10;9.50;9.50;7.25
23240;PMS7003;11789;53.482;9.862;2022-09-28T02:14:45;12.25;12.25;9.00
23240;PMS7003;11789;53.482;9.862;2022-09-28T02:17:13;16.25;11.25;8.25
23240;PMS7003;11789;53.482;9.862;2022-09-28T02:19:40;7.00;7.00;5.00
23240;PMS7003;11789;53.482;9.862;2022-09-28T02:22:27;8.75;8.75;6.25
23240;PMS7003;11789;53.482;9.862;2022-09-28T02:25:08;14.00;12.25;7.00
23240;PMS7003;11789;53.482;9.862;2022-09-28T02:27:53;11.00;11.00;7.00
23240;PMS7003;11789;53.482;9.862;2022-09-28T02:30:24;10.00;8.00;6.00
23240;PMS7003;11789;53.482;9.862;2022-09-28T02:32:52;14.00;9.25;7.00
23240;PMS7003;11789;53.482;9.862;2022-09-28T02:35:22;10.50;10.50;7.75
23240;PMS7003;11789;53.482;9.862;2022-09-28T02:37:48;11.50;9.25;6.75
23240;PMS7003;11789;53.482;9.862;2022-09-28T02:42:51;15.50;13.00;8.00
23240;PMS7003;11789;53.482;9.862;2022-09-28T02:45:49;13.75;12.25;8.00
23240;PMS7003;11789;53.482;9.862;2022-09-28T02:57:39;14.25;14.25;9.75
23240;PMS7003;11789;53.482;9.862;2022-09-28T03:00:31;17.00;16.25;10.50
23240;PMS7003;11789;53.482;9.862;2022-09-28T03:03:23;17.50;13.00;8.50
23240;PMS7003;11789;53.482;9.862;2022-09-28T03:06:08;14.25;12.50;7.50
23240;PMS7003;11789;53.482;9.862;2022-09-28T03:08:44;13.25;11.25;7.25
23240;PMS7003;11789;53.482;9.862;2022-09-28T03:11:19;11.25;11.25;7.50
23240;PMS7003;11789;53.482;9.862;2022-09-28T03:13:48;15.75;12.50;8.00
23240;PMS7003;11789;53.482;9.862;2022-09-28T03:16:17;12.50;12.50;8.00
23240;PMS7003;11789;53.482;9.862;2022-09-28T03:18:43;16.00;16.00;12.25
23240;PMS7003;11789;53.482;9.862;2022-09-28T03:21:10;13.75;13.50;10.25
23240;PMS7003;11789;53.482;9.862;2022-09-28T03:23:36;16.00;16.00;10.00
23240;PMS7003;11789;53.482;9.862;2022-09-28T03:26:02;15.00;11.25;6.25
23240;PMS7003;11789;53.482;9.862;2022-09-28T03:28:28;12.75;12.75;10.50
23240;PMS7003;11789;53.482;9.862;2022-09-28T03:30:53;15.00;13.00;10.25
23240;PMS7003;11789;53.482;9.862;2022-09-28T03:33:19;15.25;14.00;9.25
23240;PMS7003;11789;53.482;9.862;2022-09-28T03:35:46;11.75;11.75;7.00
23240;PMS7003;11789;53.482;9.862;2022-09-28T03:38:12;11.50;11.50;9.25
23240;PMS7003;11789;53.482;9.862;2022-09-28T03:40:38;17.00;13.25;7.00
23240;PMS7003;11789;53.482;9.862;2022-09-28T03:43:03;12.50;12.00;8.25
23240;PMS7003;11789;53.482;9.862;2022-09-28T03:45:29;16.50;15.75;11.00
23240;PMS7003;11789;53.482;9.862;2022-09-28T03:47:54;20.75;17.00;11.00
23240;PMS7003;11789;53.482;9.862;2022-09-28T03:50:19;15.25;15.00;9.25
23240;PMS7003;11789;53.482;9.862;2022-09-28T03:52:45;14.50;12.75;8.75
23240;PMS7003;11789;53.482;9.862;2022-09-28T03:55:11;15.75;14.75;9.50
23240;PMS7003;11789;53.482;9.862;2022-09-28T03:57:36;19.75;15.75;10.75
23240;PMS7003;11789;53.482;9.862;2022-09-28T04:00:05;12.25;10.50;6.75
23240;PMS7003;11789;53.482;9.862;2022-09-28T04:02:32;15.00;15.00;10.00
23240;PMS7003;11789;53.482;9.862;2022-09-28T04:05:01;14.25;13.00;8.00
23240;PMS7003;11789;53.482;9.862;2022-09-28T04:07:26;15.25;13.50;9.75
23240;PMS7003;11789;53.482;9.862;2022-09-28T04:09:52;12.25;12.00;8.75
23240;PMS7003;11789;53.482;9.862;2022-09-28T04:12:18;14.25;10.00;7.00
23240;PMS7003;11789;53.482;9.862;2022-09-28T04:14:43;14.25;12.50;8.25
23240;PMS7003;11789;53.482;9.862;2022-09-28T04:17:08;11.75;8.75;6.50
23240;PMS7003;11789;53.482;9.862;2022-09-28T04:19:34;10.25;10.25;7.25
23240;PMS7003;11789;53.482;9.862;2022-09-28T04:22:00;10.25;10.25;6.75
23240;PMS7003;11789;53.482;9.862;2022-09-28T04:24:26;9.00;8.50;6.00
23240;PMS7003;11789;53.482;9.862;2022-09-28T04:26:52;10.00;6.75;4.50
23240;PMS7003;11789;53.482;9.862;2022-09-28T04:29:37;10.00;10.00;7.00
23240;PMS7003;11789;53.482;9.862;2022-09-28T04:32:04;12.50;12.50;7.50
23240;PMS7003;11789;53.482;9.862;2022-09-28T04:34:29;7.50;7.50;3.75
23240;PMS7003;11789;53.482;9.862;2022-09-28T04:36:55;12.75;10.75;7.50
23240;PMS7003;11789;53.482;9.862;2022-09-28T04:39:21;10.00;10.00;6.00
23240;PMS7003;11789;53.482;9.862;2022-09-28T04:41:46;11.00;11.00;6.00
23240;PMS7003;11789;53.482;9.862;2022-09-28T04:44:12;8.50;8.50;5.00
23240;PMS7003;11789;53.482;9.862;2022-09-28T04:46:38;10.25;8.75;6.00
23240;PMS7003;11789;53.482;9.862;2022-09-28T04:49:03;7.75;7.75;5.00
23240;PMS7003;11789;53.482;9.862;2022-09-28T04:51:29;6.75;6.75;4.25
23240;PMS7003;11789;53.482;9.862;2022-09-28T04:53:55;5.00;5.00;4.00
23240;PMS7003;11789;53.482;9.862;2022-09-28T04:56:21;7.50;7.50;6.00
23240;PMS7003;11789;53.482;9.862;2022-09-28T04:58:46;7.25;7.25;5.00
23240;PMS7003;11789;53.482;9.862;2022-09-28T05:01:14;10.50;10.50;6.00
23240;PMS7003;11789;53.482;9.862;2022-09-28T05:03:41;7.25;7.25;5.25
23240;PMS7003;11789;53.482;9.862;2022-09-28T05:06:07;10.25;6.75;5.00
23240;PMS7003;11789;53.482;9.862;2022-09-28T05:08:33;5.00;5.00;4.00
23240;PMS7003;11789;53.482;9.862;2022-09-28T05:11:00;7.25;6.00;4.25
23240;PMS7003;11789;53.482;9.862;2022-09-28T05:13:28;5.50;5.50;5.00
23240;PMS7003;11789;53.482;9.862;2022-09-28T05:15:54;7.50;6.00;4.75
23240;PMS7003;11789;53.482;9.862;2022-09-28T05:18:21;15.00;10.00;6.50
23240;PMS7003;11789;53.482;9.862;2022-09-28T05:20:47;5.50;5.50;5.00
23240;PMS7003;11789;53.482;9.862;2022-09-28T05:23:12;11.00;7.50;6.00
23240;PMS7003;11789;53.482;9.862;2022-09-28T05:25:39;10.75;7.25;6.00
23240;PMS7003;11789;53.482;9.862;2022-09-28T05:28:05;9.00;6.50;5.00
23240;PMS7003;11789;53.482;9.862;2022-09-28T05:30:31;12.00;8.75;6.00
23240;PMS7003;11789;53.482;9.862;2022-09-28T05:32:57;11.25;9.75;7.75
23240;PMS7003;11789;53.482;9.862;2022-09-28T05:35:23;13.50;12.25;8.00
23240;PMS7003;11789;53.482;9.862;2022-09-28T05:37:48;10.75;9.25;6.00
23240;PMS7003;11789;53.482;9.862;2022-09-28T05:40:14;11.00;11.00;9.00
23240;PMS7003;11789;53.482;9.862;2022-09-28T05:42:40;13.50;12.00;8.00
23240;PMS7003;11789;53.482;9.862;2022-09-28T05:45:05;16.75;11.00;8.00
23240;PMS7003;11789;53.482;9.862;2022-09-28T05:47:35;12.75;11.25;9.00
23240;PMS7003;11789;53.482;9.862;2022-09-28T05:50:10;10.00;6.00;2.25
23240;PMS7003;11789;53.482;9.862;2022-09-28T05:52:36;11.25;11.00;8.50
23240;PMS7003;11789;53.482;9.862;2022-09-28T05:55:03;13.00;13.00;9.75
23240;PMS7003;11789;53.482;9.862;2022-09-28T05:57:30;12.50;12.50;9.00
23240;PMS7003;11789;53.482;9.862;2022-09-28T05:59:56;11.25;11.25;8.75
23240;PMS7003;11789;53.482;9.862;2022-09-28T06:02:21;13.00;13.00;9.00
23240;PMS7003;11789;53.482;9.862;2022-09-28T06:04:50;12.50;12.50;8.75
23240;PMS7003;11789;53.482;9.862;2022-09-28T06:07:18;13.75;12.50;8.50
23240;PMS7003;11789;53.482;9.862;2022-09-28T06:09:45;10.75;10.75;9.00
23240;PMS7003;11789;53.482;9.862;2022-09-28T06:12:11;13.25;13.00;9.75
23240;PMS7003;11789;53.482;9.862;2022-09-28T06:14:36;13.00;13.00;10.00
23240;PMS7003;11789;53.482;9.862;2022-09-28T06:17:03;14.75;14.75;9.00
23240;PMS7003;11789;53.482;9.862;2022-09-28T06:19:28;12.50;12.00;8.50
23240;PMS7003;11789;53.482;9.862;2022-09-28T06:21:54;14.00;13.00;9.00
23240;PMS7003;11789;53.482;9.862;2022-09-28T06:24:19;19.00;15.00;10.75
23240;PMS7003;11789;53.482;9.862;2022-09-28T06:26:44;17.50;16.00;10.75
23240;PMS7003;11789;53.482;9.862;2022-09-28T06:29:10;13.25;12.25;8.00
23240;PMS7003;11789;53.482;9.862;2022-09-28T06:31:38;13.75;12.00;9.50
23240;PMS7003;11789;53.482;9.862;2022-09-28T06:34:03;17.25;14.75;10.00
23240;PMS7003;11789;53.482;9.862;2022-09-28T06:36:28;14.25;14.25;10.25
23240;PMS7003;11789;53.482;9.862;2022-09-28T06:38:55;15.25;15.25;10.75
23240;PMS7003;11789;53.482;9.862;2022-09-28T06:41:21;19.25;18.75;12.00
23240;PMS7003;11789;53.482;9.862;2022-09-28T06:43:47;19.50;18.00;10.50
23240;PMS7003;11789;53.482;9.862;2022-09-28T06:46:12;20.00;19.00;12.00
23240;PMS7003;11789;53.482;9.862;2022-09-28T06:48:38;21.50;19.50;12.00
23240;PMS7003;11789;53.482;9.862;2022-09-28T06:51:04;22.00;20.25;12.00
23240;PMS7003;11789;53.482;9.862;2022-09-28T06:53:31;28.25;25.75;15.00
23240;PMS7003;11789;53.482;9.862;2022-09-28T06:55:57;27.75;22.25;13.00
23240;PMS7003;11789;53.482;9.862;2022-09-28T06:58:23;29.00;22.75;13.00
23240;PMS7003;11789;53.482;9.862;2022-09-28T07:00:50;25.00;22.50;13.00
23240;PMS7003;11789;53.482;9.862;2022-09-28T07:03:17;31.25;27.25;15.75
23240;PMS7003;11789;53.482;9.862;2022-09-28T07:05:45;29.25;25.75;15.50
23240;PMS7003;11789;53.482;9.862;2022-09-28T07:08:15;22.25;20.25;13.00
23240;PMS7003;11789;53.482;9.862;2022-09-28T07:10:42;27.50;22.25;14.00
23240;PMS7003;11789;53.482;9.862;2022-09-28T07:13:20;23.50;22.75;13.75
23240;PMS7003;11789;53.482;9.862;2022-09-28T07:15:47;27.75;27.00;15.50
23240;PMS7003;11789;53.482;9.862;2022-09-28T07:18:13;17.25;17.25;12.25
23240;PMS7003;11789;53.482;9.862;2022-09-28T07:20:38;23.75;22.50;14.25
23240;PMS7003;11789;53.482;9.862;2022-09-28T07:23:05;23.75;22.75;13.25
23240;PMS7003;11789;53.482;9.862;2022-09-28T07:25:34;22.75;21.00;13.00
23240;PMS7003;11789;53.482;9.862;2022-09-28T07:28:01;26.00;24.50;13.50
23240;PMS7003;11789;53.482;9.862;2022-09-28T07:30:29;23.25;21.25;14.25
23240;PMS7003;11789;53.482;9.862;2022-09-28T07:32:57;25.50;25.25;15.25
23240;PMS7003;11789;53.482;9.862;2022-09-28T07:35:24;30.50;25.75;15.75
23240;PMS7003;11789;53.482;9.862;2022-09-28T07:37:59;25.25;25.00;14.25
23240;PMS7003;11789;53.482;9.862;2022-09-28T07:40:27;33.50;27.00;16.75
23240;PMS7003;11789;53.482;9.862;2022-09-28T07:43:12;27.00;23.25;13.50
23240;PMS7003;11789;53.482;9.862;2022-09-28T07:45:38;29.50;24.25;15.00
23240;PMS7003;11789;53.482;9.862;2022-09-28T07:48:04;32.75;29.75;16.00
23240;PMS7003;11789;53.482;9.862;2022-09-28T07:50:30;34.00;28.25;17.00
23240;PMS7003;11789;53.482;9.862;2022-09-28T07:52:55;20.25;19.75;14.00
23240;PMS7003;11789;53.482;9.862;2022-09-28T07:55:21;29.50;23.50;13.00
23240;PMS7003;11789;53.482;9.862;2022-09-28T07:57:53;35.75;31.75;16.75
23240;PMS7003;11789;53.482;9.862;2022-09-28T08:00:26;35.00;32.50;16.75
23240;PMS7003;11789;53.482;9.862;2022-09-28T08:02:54;32.25;31.25;15.25
23240;PMS7003;11789;53.482;9.862;2022-09-28T08:05:19;33.75;30.25;18.00
23240;PMS7003;11789;53.482;9.862;2022-09-28T08:07:48;36.75;29.50;18.25
23240;PMS7003;11789;53.482;9.862;2022-09-28T08:10:13;32.50;31.50;18.75
23240;PMS7003;11789;53.482;9.862;2022-09-28T08:12:38;39.00;33.00;17.50
23240;PMS7003;11789;53.482;9.862;2022-09-28T08:15:05;29.75;28.50;16.00
23240;PMS7003;11789;53.482;9.862;2022-09-28T08:17:34;28.25;26.50;17.50
23240;PMS7003;11789;53.482;9.862;2022-09-28T08:20:00;31.50;30.50;16.25
23240;PMS7003;11789;53.482;9.862;2022-09-28T08:22:45;30.50;28.50;17.50
23240;PMS7003;11789;53.482;9.862;2022-09-28T08:25:11;32.75;30.00;16.00
23240;PMS7003;11789;53.482;9.862;2022-09-28T08:27:36;32.50;31.25;17.00
23240;PMS7003;11789;53.482;9.862;2022-09-28T08:30:02;32.50;28.50;17.25
23240;PMS7003;11789;53.482;9.862;2022-09-28T08:32:27;31.25;29.25;15.00
23240;PMS7003;11789;53.482;9.862;2022-09-28T08:34:54;29.25;24.75;15.00
23240;PMS7003;11789;53.482;9.862;2022-09-28T08:37:20;32.50;30.25;18.00
23240;PMS7003;11789;53.482;9.862;2022-09-28T08:39:45;28.25;23.75;16.50
23240;PMS7003;11789;53.482;9.862;2022-09-28T08:45:07;36.00;26.50;16.00
23240;PMS7003;11789;53.482;9.862;2022-09-28T08:51:02;24.50;23.75;12.00
23240;PMS7003;11789;53.482;9.862;2022-09-28T08:53:36;28.50;26.75;15.50
23240;PMS7003;11789;53.482;9.862;2022-09-28T08:56:13;29.25;27.25;14.00
23240;PMS7003;11789;53.482;9.862;2022-09-28T08:58:49;27.25;27.00;15.00
23240;PMS7003;11789;53.482;9.862;2022-09-28T09:01:21;30.00;22.00;13.00
23240;PMS7003;11789;53.482;9.862;2022-09-28T09:03:50;29.00;28.50;16.25
23240;PMS7003;11789;53.482;9.862;2022-09-28T09:06:21;28.50;24.75;17.50
23240;PMS7003;11789;53.482;9.862;2022-09-28T09:23:26;28.50;24.25;14.75
23240;PMS7003;11789;53.482;9.862;2022-09-28T09:25:49;21.50;19.25;14.00
23240;PMS7003;11789;53.482;9.862;2022-09-28T09:31:01;23.00;20.75;12.50
23240;PMS7003;11789;53.482;9.862;2022-09-28T09:42:15;18.25;18.25;11.25
23240;PMS7003;11789;53.482;9.862;2022-09-28T09:47:23;27.50;21.50;15.00
23240;PMS7003;11789;53.482;9.862;2022-09-28T09:50:04;26.00;22.75;14.00
23240;PMS7003;11789;53.482;9.862;2022-09-28T09:52:41;23.50;21.25;15.75
23240;PMS7003;11789;53.482;9.862;2022-09-28T09:55:37;31.75;26.50;15.75
23240;PMS7003;11789;53.482;9.862;2022-09-28T10:00:39;26.50;25.25;16.75
23240;PMS7003;11789;53.482;9.862;2022-09-28T10:03:13;29.75;25.00;16.00
23240;PMS7003;11789;53.482;9.862;2022-09-28T10:05:46;24.00;24.00;16.75
23240;PMS7003;11789;53.482;9.862;2022-09-28T10:08:19;27.25;26.25;14.25
23240;PMS7003;11789;53.482;9.862;2022-09-28T10:10:48;22.50;21.00;14.25
23240;PMS7003;11789;53.482;9.862;2022-09-28T10:13:18;25.50;24.50;14.50
23240;PMS7003;11789;53.482;9.862;2022-09-28T10:15:43;20.25;20.25;15.00
23240;PMS7003;11789;53.482;9.862;2022-09-28T10:18:13;26.00;26.00;17.25
23240;PMS7003;11789;53.482;9.862;2022-09-28T10:20:41;32.75;27.75;16.00
23240;PMS7003;11789;53.482;9.862;2022-09-28T10:23:20;24.75;23.50;14.75
23240;PMS7003;11789;53.482;9.862;2022-09-28T10:25:53;30.00;25.50;15.75
23240;PMS7003;11789;53.482;9.862;2022-09-28T10:28:27;23.00;23.00;15.25
23240;PMS7003;11789;53.482;9.862;2022-09-28T10:30:57;32.00;27.75;18.50
23240;PMS7003;11789;53.482;9.862;2022-09-28T10:33:28;23.50;23.50;15.50
23240;PMS7003;11789;53.482;9.862;2022-09-28T10:35:58;21.75;20.50;13.00
23240;PMS7003;11789;53.482;9.862;2022-09-28T10:38:25;23.25;21.75;14.25
23240;PMS7003;11789;53.482;9.862;2022-09-28T10:40:57;28.00;26.00;14.50
23240;PMS7003;11789;53.482;9.862;2022-09-28T10:43:29;20.50;19.75;12.75
23240;PMS7003;11789;53.482;9.862;2022-09-28T10:46:05;19.00;19.00;11.00
23240;PMS7003;11789;53.482;9.862;2022-09-28T10:51:40;21.00;18.25;12.75
23240;PMS7003;11789;53.482;9.862;2022-09-28T10:54:19;22.00;18.00;11.00
23240;PMS7003;11789;53.482;9.862;2022-09-28T10:56:47;15.25;14.00;10.00
23240;PMS7003;11789;53.482;9.862;2022-09-28T11:02:00;17.50;16.25;10.50
23240;PMS7003;11789;53.482;9.862;2022-09-28T11:04:50;17.50;14.75;10.50
23240;PMS7003;11789;53.482;9.862;2022-09-28T11:07:20;15.00;14.25;8.00
23240;PMS7003;11789;53.482;9.862;2022-09-28T11:09:51;13.75;13.75;9.00
23240;PMS7003;11789;53.482;9.862;2022-09-28T11:12:19;12.75;10.75;8.75
23240;PMS7003;11789;53.482;9.862;2022-09-28T11:14:48;13.75;10.75;8.25
23240;PMS7003;11789;53.482;9.862;2022-09-28T11:17:28;12.25;12.00;8.75
23240;PMS7003;11789;53.482;9.862;2022-09-28T11:19:59;12.00;10.25;7.00
23240;PMS7003;11789;53.482;9.862;2022-09-28T11:22:45;13.00;10.00;6.00
23240;PMS7003;11789;53.482;9.862;2022-09-28T11:25:15;7.75;6.75;5.00
23240;PMS7003;11789;53.482;9.862;2022-09-28T11:30:27;9.50;9.00;6.25
23240;PMS7003;11789;53.482;9.862;2022-09-28T11:33:09;7.00;7.00;4.00
23240;PMS7003;11789;53.482;9.862;2022-09-28T11:41:31;10.75;9.25;6.00
23240;PMS7003;11789;53.482;9.862;2022-09-28T11:50:15;11.25;11.25;7.75
23240;PMS7003;11789;53.482;9.862;2022-09-28T11:52:52;12.00;10.50;8.00
23240;PMS7003;11789;53.482;9.862;2022-09-28T11:55:33;11.25;9.75;6.75
23240;PMS7003;11789;53.482;9.862;2022-09-28T11:58:11;8.00;8.00;7.00
23240;PMS7003;11789;53.482;9.862;2022-09-28T12:00:46;15.25;13.75;9.00
23240;PMS7003;11789;53.482;9.862;2022-09-28T12:03:28;13.75;13.75;9.00
23240;PMS7003;11789;53.482;9.862;2022-09-28T12:06:08;16.00;15.75;11.25
23240;PMS7003;11789;53.482;9.862;2022-09-28T12:08:40;15.25;15.25;10.00
23240;PMS7003;11789;53.482;9.862;2022-09-28T12:13:41;15.50;14.00;9.50
23240;PMS7003;11789;53.482;9.862;2022-09-28T12:16:13;12.50;12.50;8.25
23240;PMS7003;11789;53.482;9.862;2022-09-28T12:19:03;11.50;10.00;7.00
23240;PMS7003;11789;53.482;9.862;2022-09-28T12:21:43;10.50;10.50;7.75
23240;PMS7003;11789;53.482;9.862;2022-09-28T12:24:30;11.75;11.75;8.50
23240;PMS7003;11789;53.482;9.862;2022-09-28T12:29:42;8.00;8.00;7.00
23240;PMS7003;11789;53.482;9.862;2022-09-28T12:34:59;9.00;9.00;6.25
23240;PMS7003;11789;53.482;9.862;2022-09-28T12:37:35;9.25;9.25;7.00
23240;PMS7003;11789;53.482;9.862;2022-09-28T12:40:32;9.75;8.00;6.75
23240;PMS7003;11789;53.482;9.862;2022-09-28T12:43:08;10.00;9.00;6.25
23240;PMS7003;11789;53.482;9.862;2022-09-28T12:45:58;10.00;8.25;7.00
23240;PMS7003;11789;53.482;9.862;2022-09-28T12:56:51;12.50;11.00;8.00
23240;PMS7003;11789;53.482;9.862;2022-09-28T12:59:34;10.25;10.25;7.50
23240;PMS7003;11789;53.482;9.862;2022-09-28T13:10:58;9.50;9.50;7.25
23240;PMS7003;11789;53.482;9.862;2022-09-28T13:13:37;12.00;12.00;9.75
23240;PMS7003;11789;53.482;9.862;2022-09-28T13:16:26;10.25;9.50;7.50
23240;PMS7003;11789;53.482;9.862;2022-09-28T13:19:14;10.75;10.50;8.00
23240;PMS7003;11789;53.482;9.862;2022-09-28T13:21:48;11.00;11.00;8.50
23240;PMS7003;11789;53.482;9.862;2022-09-28T13:24:26;9.75;9.75;7.25
23240;PMS7003;11789;53.482;9.862;2022-09-28T13:27:00;10.00;10.00;7.00
23240;PMS7003;11789;53.482;9.862;2022-09-28T13:29:32;14.50;12.50;7.50
23240;PMS7003;11789;53.482;9.862;2022-09-28T13:31:58;11.25;11.25;8.00
23240;PMS7003;11789;53.482;9.862;2022-09-28T13:34:27;10.50;9.50;7.25
23240;PMS7003;11789;53.482;9.862;2022-09-28T13:42:09;10.50;10.50;7.25
23240;PMS7003;11789;53.482;9.862;2022-09-28T13:44:50;12.25;10.00;8.00
23240;PMS7003;11789;53.482;9.862;2022-09-28T13:50:04;8.50;8.50;6.75
23240;PMS7003;11789;53.482;9.862;2022-09-28T14:01:01;10.00;10.00;8.00
23240;PMS7003;11789;53.482;9.862;2022-09-28T14:06:35;10.00;8.75;7.50
23240;PMS7003;11789;53.482;9.862;2022-09-28T14:11:58;14.25;11.50;8.00
23240;PMS7003;11789;53.482;9.862;2022-09-28T14:16:51;12.50;10.50;8.25
23240;PMS7003;11789;53.482;9.862;2022-09-28T14:19:43;10.75;10.75;8.00
23240;PMS7003;11789;53.482;9.862;2022-09-28T14:30:44;11.75;10.25;8.00
23240;PMS7003;11789;53.482;9.862;2022-09-28T14:38:27;7.00;7.00;3.50
23240;PMS7003;11789;53.482;9.862;2022-09-28T14:53:55;9.50;7.25;6.00
23240;PMS7003;11789;53.482;9.862;2022-09-28T14:56:25;8.00;8.00;5.50
23240;PMS7003;11789;53.482;9.862;2022-09-28T14:58:53;10.25;7.25;5.00
23240;PMS7003;11789;53.482;9.862;2022-09-28T15:01:22;8.00;8.00;5.25
23240;PMS7003;11789;53.482;9.862;2022-09-28T15:03:56;8.00;8.00;6.00
23240;PMS7003;11789;53.482;9.862;2022-09-28T15:06:24;9.00;9.00;7.00
23240;PMS7003;11789;53.482;9.862;2022-09-28T15:08:53;9.00;9.00;5.50
23240;PMS7003;11789;53.482;9.862;2022-09-28T15:11:22;10.25;10.00;7.00
23240;PMS7003;11789;53.482;9.862;2022-09-28T15:13:50;9.50;9.50;7.00
23240;PMS7003;11789;53.482;9.862;2022-09-28T15:16:33;11.50;9.00;7.25
23240;PMS7003;11789;53.482;9.862;2022-09-28T15:21:41;10.50;10.25;7.25
23240;PMS7003;11789;53.482;9.862;2022-09-28T15:26:49;12.00;11.50;7.75
23240;PMS7003;11789;53.482;9.862;2022-09-28T15:29:16;12.00;10.25;7.00
23240;PMS7003;11789;53.482;9.862;2022-09-28T15:31:43;10.75;10.25;8.00
23240;PMS7003;11789;53.482;9.862;2022-09-28T15:34:28;14.50;12.25;8.00
23240;PMS7003;11789;53.482;9.862;2022-09-28T15:37:14;10.25;10.25;8.00
23240;PMS7003;11789;53.482;9.862;2022-09-28T15:39:46;15.00;13.25;8.00
23240;PMS7003;11789;53.482;9.862;2022-09-28T15:42:14;11.25;10.25;7.25
23240;PMS7003;11789;53.482;9.862;2022-09-28T15:44:40;13.00;11.25;8.50
23240;PMS7003;11789;53.482;9.862;2022-09-28T15:52:05;11.00;9.00;7.00
23240;PMS7003;11789;53.482;9.862;2022-09-28T15:54:45;12.50;11.75;7.25
23240;PMS7003;11789;53.482;9.862;2022-09-28T15:57:27;8.25;8.25;7.00
23240;PMS7003;11789;53.482;9.862;2022-09-28T15:59:56;12.25;12.25;9.75
23240;PMS7003;11789;53.482;9.862;2022-09-28T16:02:23;14.25;14.25;10.00
23240;PMS7003;11789;53.482;9.862;2022-09-28T16:04:51;16.25;14.50;10.25
23240;PMS7003;11789;53.482;9.862;2022-09-28T16:07:21;19.75;18.25;10.75
23240;PMS7003;11789;53.482;9.862;2022-09-28T16:09:56;18.25;17.25;11.75
23240;PMS7003;11789;53.482;9.862;2022-09-28T16:15:28;18.75;16.75;11.00
23240;PMS7003;11789;53.482;9.862;2022-09-28T16:18:02;19.00;18.25;10.25
23240;PMS7003;11789;53.482;9.862;2022-09-28T16:20:37;24.00;20.00;12.00
23240;PMS7003;11789;53.482;9.862;2022-09-28T16:23:46;18.00;17.75;12.50
23240;PMS7003;11789;53.482;9.862;2022-09-28T16:36:46;21.75;19.50;13.00
23240;PMS7003;11789;53.482;9.862;2022-09-28T16:39:15;20.25;18.00;12.00
23240;PMS7003;11789;53.482;9.862;2022-09-28T16:41:44;26.00;21.25;13.75
23240;PMS7003;11789;53.482;9.862;2022-09-28T16:44:21;20.50;20.50;13.00
23240;PMS7003;11789;53.482;9.862;2022-09-28T16:46:50;20.25;20.00;12.25
23240;PMS7003;11789;53.482;9.862;2022-09-28T16:49:19;26.25;26.25;17.00
23240;PMS7003;11789;53.482;9.862;2022-09-28T16:51:45;31.00;29.00;20.75
23240;PMS7003;11789;53.482;9.862;2022-09-28T16:54:19;32.50;31.00;20.50
23240;PMS7003;11789;53.482;9.862;2022-09-28T16:57:06;31.75;31.25;21.00
23240;PMS7003;11789;53.482;9.862;2022-09-28T16:59:34;40.00;35.50;23.00
23240;PMS7003;11789;53.482;9.862;2022-09-28T17:02:12;35.25;33.50;22.75
23240;PMS7003;11789;53.482;9.862;2022-09-28T17:04:42;39.00;36.00;25.00
23240;PMS7003;11789;53.482;9.862;2022-09-28T17:07:08;39.50;36.00;25.50
23240;PMS7003;11789;53.482;9.862;2022-09-28T17:12:40;37.25;34.25;22.00
23240;PMS7003;11789;53.482;9.862;2022-09-28T17:15:06;40.50;33.50;21.50
23240;PMS7003;11789;53.482;9.862;2022-09-28T17:17:31;37.00;34.50;20.75
23240;PMS7003;11789;53.482;9.862;2022-09-28T17:19:57;34.50;31.00;19.25
23240;PMS7003;11789;53.482;9.862;2022-09-28T17:22:22;26.50;26.50;18.00